Andover, Vermont
Current Conditions -  °F | °C
As of 5:54 AM on Thursday 18 Dec 2014 (Local Time) from KVSF Reporting Station
Overcast Overcast  
Wind Chill: 30°   Ceiling: 2800
Heat Index: 36°   Visibility: 10mi
Dew Point: 28°   Wind: 8mph
Humidity: 73%   Direction: 290°WNW
Pressure: 29.74"   Gusts: NA
Location:  43.2811°N, 72.6352°W
Report Text: KVSF 181054Z AUTO 29007KT 250V320 10SM BKN028 BKN036 OVC070 02/M02 A2974 RMK AO2 SLP077 T00221022 TSNO
Loading
Personal Weather Stations






























Interactive Weather Map New forecast layout! Learn more

10-Day Weather Forecast

Advertisements
Track Severe Weather on mobile